メインページ
METAR-TAF:

METAR-TAF

空港 :

ポワンタピートル, グアドループ

ポワンタピートル国際空港

緯度: 16-16N, 経度: 061-31W, 海抜: 11m

現時点の気象観測

当レポートは39分前の21:30(UTC)に作成
の風 12kt
気温 25°C
湿度 74%
気圧 1018 hPa
視程10km以上
高度2700ftの千切れ雲あり
高度3200ftの千切れ雲あり
高度3800ftの千切れ雲あり

METAR: TFFR 192130Z AUTO 08012KT 9999 BKN027 BKN032 BKN038 25/20 Q1018 TEMPO 07020G30KT

時間: 18:09 (22:09 UTC)

予報

当レポートは6時間9分前の16:00(UTC)に作成
予報は19日の 18時(UTC)から 20日の 18時(UTC)まで有効
東/北東の風 15kt
視程10km以上
高度3500ftの雲は散在している
高度5000ftの雲は散在している
19日の 18時(UTC)から 19日の 24時(UTC)まで一時的に
東/北東の風 20kt、最大30ktの突風を伴う
20日の 00時(UTC)から 20日の 12時(UTC)まで一時的に
視程: 4000m
高度1800ftの雲は散在している, 塔状積雲.
にわか雨

TAF: TFFR 191600Z 1918/2018 07015KT 9999 SCT035 SCT050 TEMPO 1918/1924 07020G30KT TEMPO 2000/2012 4000 SHRA SCT018TCU

4,000以上の空港の気象観測と天気予報(METAR報とTAF報)

利用可能な観測所は地図上に黄色い丸と赤い丸で示す。

丸の上にカーソルを重ねると観測所名を参照できる。

次にクリックすると気象観測と天気予報を参照できる。

マップの切り替え:黒色「×」印の緑ボタンをクリックして拡大、「-」印の緑ボタンをクリックして縮小、緑色の三角印をクリックして隣りの地図に切り替え


METAR-TAF: